createdAt,value
2017-05-31T00:00:39.221Z,77.30
2017-05-31T00:03:08.060Z,77.50
2017-05-31T00:05:36.903Z,77.60
2017-05-31T00:08:05.743Z,76.50
2017-05-31T00:10:34.595Z,76.30
2017-05-31T00:13:03.449Z,77.50
2017-05-31T00:15:32.335Z,78.30
2017-05-31T00:18:01.190Z,77.80
2017-05-31T00:20:30.024Z,78.10
2017-05-31T00:22:58.872Z,78.60
2017-05-31T00:25:27.712Z,78.50
2017-05-31T00:27:56.555Z,78.30
2017-05-31T00:30:25.393Z,79.20
2017-05-31T00:32:54.256Z,79.80
2017-05-31T00:35:23.119Z,79.70
2017-05-31T00:37:51.927Z,80.40
2017-05-31T00:40:20.771Z,80.70
2017-05-31T00:42:49.618Z,81.00
2017-05-31T00:45:18.459Z,80.70
2017-05-31T00:47:47.304Z,80.90
2017-05-31T00:50:15.404Z,80.90
2017-05-31T00:52:43.471Z,81.00
2017-05-31T00:55:12.312Z,80.80
2017-05-31T00:57:41.160Z,80.50
2017-05-31T01:00:10.026Z,80.10
2017-05-31T01:02:38.878Z,81.10
2017-05-31T01:05:07.722Z,80.70
2017-05-31T01:07:36.613Z,80.50
2017-05-31T01:10:05.460Z,80.30
2017-05-31T01:12:34.308Z,79.90
2017-05-31T01:15:03.169Z,79.40
2017-05-31T01:17:32.004Z,80.30
2017-05-31T01:20:00.872Z,82.10
2017-05-31T01:22:29.716Z,83.00
2017-05-31T01:24:58.592Z,82.70
2017-05-31T01:27:27.450Z,83.00
2017-05-31T01:29:56.307Z,84.30
2017-05-31T01:32:24.394Z,84.20
2017-05-31T01:34:53.228Z,84.70
2017-05-31T01:37:22.905Z,84.70
2017-05-31T01:39:50.983Z,84.70
2017-05-31T01:42:19.863Z,84.20
2017-05-31T01:44:48.703Z,84.00
2017-05-31T01:47:17.555Z,83.60
2017-05-31T01:49:46.405Z,83.90
2017-05-31T01:52:15.240Z,83.90
2017-05-31T01:54:44.081Z,84.30
2017-05-31T01:57:12.936Z,84.20
2017-05-31T01:59:41.783Z,84.60
2017-05-31T02:02:10.632Z,84.30
2017-05-31T02:04:39.464Z,84.60
2017-05-31T02:07:08.311Z,84.60
2017-05-31T02:09:37.151Z,84.60
2017-05-31T02:12:06.007Z,84.40
2017-05-31T02:14:34.853Z,84.60
2017-05-31T02:17:03.722Z,84.50
2017-05-31T02:19:31.793Z,84.50
2017-05-31T02:22:00.637Z,84.40
2017-05-31T02:24:29.494Z,84.40
2017-05-31T02:26:58.341Z,84.30
2017-05-31T02:29:27.192Z,85.00
2017-05-31T02:31:56.038Z,85.00
2017-05-31T02:34:24.903Z,84.70
2017-05-31T02:36:53.748Z,84.60
2017-05-31T02:39:22.589Z,84.70
2017-05-31T02:41:51.431Z,84.60
2017-05-31T02:44:20.351Z,84.60
2017-05-31T02:46:49.199Z,84.60
2017-05-31T02:49:18.047Z,84.50
2017-05-31T02:51:46.913Z,84.50
2017-05-31T02:54:15.779Z,84.40
2017-05-31T02:56:44.833Z,84.30
2017-05-31T02:59:13.694Z,84.50
2017-05-31T03:01:42.529Z,85.00
2017-05-31T03:04:10.624Z,85.00
2017-05-31T03:06:39.460Z,85.10
2017-05-31T03:09:07.583Z,85.00
2017-05-31T03:11:36.423Z,84.70
2017-05-31T03:14:05.263Z,84.90
2017-05-31T03:16:34.113Z,85.20
2017-05-31T03:19:02.960Z,85.40
2017-05-31T03:21:31.830Z,85.20
2017-05-31T03:24:00.680Z,85.00
2017-05-31T03:26:29.527Z,85.10
2017-05-31T03:28:58.370Z,84.70
2017-05-31T03:31:27.223Z,84.80
2017-05-31T03:33:56.077Z,84.50
2017-05-31T03:36:24.916Z,85.00
2017-05-31T03:38:53.768Z,84.90
2017-05-31T03:41:22.608Z,85.00
2017-05-31T03:43:51.471Z,84.90
2017-05-31T03:46:20.321Z,84.80
2017-05-31T03:48:49.161Z,84.80
2017-05-31T03:51:18.019Z,84.40
2017-05-31T03:53:46.887Z,85.10
2017-05-31T03:56:15.730Z,86.30
2017-05-31T03:58:44.588Z,86.50
2017-05-31T04:01:13.459Z,86.10
2017-05-31T04:03:42.499Z,85.60
2017-05-31T04:06:11.350Z,85.80
2017-05-31T04:08:40.201Z,86.20
2017-05-31T04:11:09.058Z,85.80
2017-05-31T04:13:37.133Z,85.80
2017-05-31T04:16:05.995Z,87.10
2017-05-31T04:18:34.883Z,86.90
2017-05-31T04:21:03.710Z,86.80
2017-05-31T04:23:31.785Z,86.70
2017-05-31T04:26:00.635Z,86.00
2017-05-31T04:28:29.477Z,85.10
2017-05-31T04:30:58.322Z,85.00
2017-05-31T04:33:27.182Z,84.90
2017-05-31T04:35:56.279Z,84.60
2017-05-31T04:38:25.124Z,84.10
2017-05-31T04:40:53.985Z,84.30
2017-05-31T04:43:22.847Z,83.30
2017-05-31T04:45:51.696Z,84.20
2017-05-31T04:48:20.539Z,83.60
2017-05-31T04:50:49.393Z,84.00
2017-05-31T04:53:18.255Z,83.80
2017-05-31T04:55:47.135Z,83.50
2017-05-31T04:58:15.974Z,82.70
2017-05-31T05:00:44.815Z,81.90
2017-05-31T05:03:13.667Z,81.40
2017-05-31T05:05:42.516Z,80.90
2017-05-31T05:08:11.357Z,79.00
2017-05-31T05:10:40.217Z,76.90
2017-05-31T05:13:09.079Z,74.60
2017-05-31T05:15:37.920Z,74.90
2017-05-31T05:18:06.771Z,73.80
2017-05-31T05:20:35.610Z,75.50
2017-05-31T05:23:04.465Z,73.80
2017-05-31T05:25:33.311Z,72.80
2017-05-31T05:28:02.183Z,72.90
2017-05-31T05:30:31.040Z,72.90
2017-05-31T05:32:59.875Z,74.00
2017-05-31T05:35:28.733Z,75.40
2017-05-31T05:37:57.574Z,75.90
2017-05-31T05:40:26.435Z,75.10
2017-05-31T05:42:55.272Z,74.80
2017-05-31T05:45:24.128Z,74.30
2017-05-31T05:47:52.987Z,73.30
2017-05-31T05:50:21.816Z,72.40
2017-05-31T05:52:50.664Z,71.00
2017-05-31T05:55:19.518Z,70.30
2017-05-31T05:57:48.395Z,69.70
2017-05-31T06:00:17.255Z,70.40
2017-05-31T06:02:46.118Z,70.10
2017-05-31T06:05:14.977Z,69.30
2017-05-31T06:07:43.819Z,69.20
2017-05-31T06:10:12.663Z,67.70
2017-05-31T06:12:41.514Z,67.60
2017-05-31T06:15:10.367Z,66.10
2017-05-31T06:17:39.215Z,64.10
2017-05-31T06:20:08.083Z,62.70
2017-05-31T06:22:36.917Z,61.70
2017-05-31T06:25:05.759Z,59.70
2017-05-31T06:27:34.608Z,58.60
2017-05-31T06:30:03.452Z,59.60
2017-05-31T06:32:32.289Z,58.70
2017-05-31T06:35:01.129Z,59.10
2017-05-31T06:37:29.967Z,57.90
2017-05-31T06:39:58.821Z,56.40
2017-05-31T06:42:27.659Z,55.70
2017-05-31T06:44:56.510Z,54.60
2017-05-31T06:47:25.361Z,53.20
2017-05-31T06:49:54.215Z,52.00
2017-05-31T06:52:23.069Z,52.00
2017-05-31T06:54:51.917Z,51.90
2017-05-31T06:57:20.747Z,52.00
2017-05-31T06:59:48.824Z,52.00
2017-05-31T07:02:17.672Z,51.50
2017-05-31T07:04:46.551Z,51.80
2017-05-31T07:07:15.413Z,51.20
2017-05-31T07:09:44.239Z,52.80
2017-05-31T07:12:13.087Z,54.80
2017-05-31T07:14:41.944Z,56.20
2017-05-31T07:17:10.808Z,54.40
2017-05-31T07:19:39.642Z,54.10
2017-05-31T07:22:08.474Z,55.60
2017-05-31T07:24:37.333Z,53.80
2017-05-31T07:27:06.175Z,52.10
2017-05-31T07:29:35.029Z,50.70
2017-05-31T07:32:03.865Z,51.30
2017-05-31T07:34:32.720Z,51.30
2017-05-31T07:37:01.577Z,52.80
2017-05-31T07:39:29.659Z,52.80
2017-05-31T07:41:58.501Z,51.40
2017-05-31T07:44:27.349Z,51.40
2017-05-31T07:46:56.195Z,48.60
2017-05-31T07:49:25.056Z,47.20
2017-05-31T07:51:53.908Z,46.80
2017-05-31T07:54:22.748Z,45.60
2017-05-31T07:56:51.596Z,45.30
2017-05-31T07:59:20.459Z,45.30
2017-05-31T08:01:49.293Z,45.90
2017-05-31T08:04:18.165Z,43.80
2017-05-31T08:06:46.987Z,44.00
2017-05-31T08:09:15.839Z,45.30
2017-05-31T08:11:44.697Z,43.30
2017-05-31T08:14:13.537Z,42.00
2017-05-31T08:16:42.389Z,42.60
2017-05-31T08:19:11.222Z,42.60
2017-05-31T08:21:40.070Z,41.70
2017-05-31T08:24:08.908Z,41.50
2017-05-31T08:26:37.760Z,41.00
2017-05-31T08:29:06.602Z,40.20
2017-05-31T08:31:35.427Z,40.20
2017-05-31T08:34:04.269Z,39.30
2017-05-31T08:36:33.159Z,37.10
2017-05-31T08:39:02.018Z,36.20
2017-05-31T08:41:31.061Z,36.80
2017-05-31T08:43:59.899Z,37.40
2017-05-31T08:46:28.735Z,38.70
2017-05-31T08:48:57.566Z,40.40
2017-05-31T08:51:26.407Z,40.10
2017-05-31T08:53:55.367Z,39.50
2017-05-31T08:56:24.349Z,38.50
2017-05-31T08:58:53.443Z,38.00
2017-05-31T09:01:22.721Z,38.60
2017-05-31T09:03:51.551Z,38.20
2017-05-31T09:06:20.382Z,39.30
2017-05-31T09:08:49.208Z,36.60
2017-05-31T09:11:18.039Z,36.90
2017-05-31T09:13:46.153Z,36.90
2017-05-31T09:16:14.979Z,37.50
2017-05-31T09:18:43.812Z,36.50
2017-05-31T09:21:12.668Z,40.10
2017-05-31T09:23:41.490Z,38.60
2017-05-31T09:26:10.339Z,37.90
2017-05-31T09:28:39.158Z,41.50
2017-05-31T09:31:08.021Z,37.70
2017-05-31T09:33:36.850Z,35.60
2017-05-31T09:36:05.751Z,36.40
2017-05-31T09:38:34.589Z,36.70
2017-05-31T09:41:03.412Z,35.60
2017-05-31T09:43:32.313Z,35.50
2017-05-31T09:46:01.148Z,34.80
2017-05-31T09:48:29.994Z,38.10
2017-05-31T09:50:58.823Z,35.60
2017-05-31T09:53:26.891Z,35.50
2017-05-31T09:55:55.750Z,33.50
2017-05-31T09:58:24.575Z,31.80
2017-05-31T10:00:53.421Z,31.80
2017-05-31T10:03:22.251Z,34.50
2017-05-31T10:05:51.100Z,36.70
2017-05-31T10:08:19.939Z,34.70
2017-05-31T10:10:48.768Z,36.40
2017-05-31T10:13:17.601Z,39.40
2017-05-31T10:15:46.427Z,35.80
2017-05-31T10:18:15.265Z,35.80
2017-05-31T10:20:44.089Z,33.20
2017-05-31T10:23:12.963Z,34.00
2017-05-31T10:25:41.792Z,34.30
2017-05-31T10:28:10.636Z,32.30
2017-05-31T10:30:39.470Z,32.60
2017-05-31T10:33:08.304Z,32.40
2017-05-31T10:35:37.135Z,31.00
2017-05-31T10:38:05.965Z,30.90
2017-05-31T10:40:34.803Z,30.30
2017-05-31T10:43:03.632Z,29.70
2017-05-31T10:45:32.455Z,28.70
2017-05-31T10:48:01.288Z,32.70
2017-05-31T10:50:30.114Z,33.30
2017-05-31T10:52:58.947Z,34.00
2017-05-31T10:55:27.780Z,29.90
2017-05-31T10:57:56.647Z,29.40
2017-05-31T11:00:25.732Z,29.40
2017-05-31T11:02:54.592Z,32.70
2017-05-31T11:05:23.423Z,33.50
2017-05-31T11:07:52.260Z,31.10
2017-05-31T11:10:21.099Z,29.60
2017-05-31T11:12:49.165Z,29.60
2017-05-31T11:15:18.006Z,29.00
2017-05-31T11:17:46.857Z,28.30
2017-05-31T11:20:15.704Z,29.30
2017-05-31T11:22:44.535Z,30.10
2017-05-31T11:25:13.408Z,29.70
2017-05-31T11:27:42.229Z,29.30
2017-05-31T11:30:11.070Z,29.30
2017-05-31T11:32:39.144Z,29.30
2017-05-31T11:35:07.971Z,33.10
2017-05-31T11:37:36.823Z,30.90
2017-05-31T11:40:05.655Z,31.40
2017-05-31T11:42:34.484Z,30.00
2017-05-31T11:45:03.314Z,28.60
2017-05-31T11:47:32.172Z,29.00
2017-05-31T11:50:00.237Z,29.00
2017-05-31T11:52:29.071Z,29.00
2017-05-31T11:54:57.157Z,29.00
2017-05-31T11:57:25.997Z,28.70
2017-05-31T11:59:54.831Z,28.10
2017-05-31T12:02:23.669Z,28.40
2017-05-31T12:04:52.499Z,29.50
2017-05-31T12:07:21.339Z,27.50
2017-05-31T12:09:50.183Z,27.30
2017-05-31T12:12:19.031Z,27.80
2017-05-31T12:14:47.940Z,29.90
2017-05-31T12:17:16.800Z,33.10
2017-05-31T12:19:45.655Z,30.90
2017-05-31T12:22:14.509Z,30.00
2017-05-31T12:24:43.334Z,29.90
2017-05-31T12:27:12.188Z,29.40
2017-05-31T12:29:41.019Z,29.70
2017-05-31T12:32:09.863Z,29.80
2017-05-31T12:34:37.939Z,29.70
2017-05-31T12:37:06.804Z,29.40
2017-05-31T12:39:35.651Z,28.00
2017-05-31T12:42:04.484Z,27.30
2017-05-31T12:44:33.341Z,31.70
2017-05-31T12:47:02.171Z,29.70
2017-05-31T12:49:31.029Z,29.60
2017-05-31T12:51:59.869Z,29.40
2017-05-31T12:54:28.703Z,29.30
2017-05-31T12:56:57.551Z,27.80
2017-05-31T12:59:26.385Z,27.50
2017-05-31T13:01:55.215Z,28.20
2017-05-31T13:04:24.052Z,27.20
2017-05-31T13:06:52.916Z,27.10
2017-05-31T13:09:21.747Z,27.10
2017-05-31T13:11:50.581Z,27.20
2017-05-31T13:14:19.425Z,27.80
2017-05-31T13:16:48.272Z,32.90
2017-05-31T13:19:17.104Z,34.30
2017-05-31T13:21:45.946Z,30.40
2017-05-31T13:24:14.799Z,29.60
2017-05-31T13:26:43.629Z,29.70
2017-05-31T13:29:12.451Z,29.60
2017-05-31T13:31:40.535Z,29.60
2017-05-31T13:34:09.372Z,30.90
2017-05-31T13:36:38.206Z,29.50
2017-05-31T13:39:07.038Z,28.70
2017-05-31T13:41:35.108Z,28.70
2017-05-31T13:44:03.972Z,28.70
2017-05-31T13:46:32.819Z,28.70
2017-05-31T13:49:01.640Z,28.70
2017-05-31T13:51:30.488Z,28.50
2017-05-31T13:53:59.342Z,27.50
2017-05-31T13:56:28.167Z,31.30
2017-05-31T13:58:57.007Z,31.20
2017-05-31T14:01:25.836Z,32.00
2017-05-31T14:03:54.679Z,31.20
2017-05-31T14:06:23.529Z,33.10
2017-05-31T14:08:52.367Z,31.70
2017-05-31T14:11:21.221Z,31.80
2017-05-31T14:13:50.051Z,31.30
2017-05-31T14:16:18.917Z,32.70
2017-05-31T14:18:47.735Z,33.70
2017-05-31T14:21:17.484Z,34.00
2017-05-31T14:23:45.565Z,34.00
2017-05-31T14:26:14.405Z,33.80
2017-05-31T14:28:43.235Z,32.70
2017-05-31T14:31:12.077Z,32.50
2017-05-31T14:33:40.907Z,32.00
2017-05-31T14:36:09.743Z,33.10
2017-05-31T14:38:38.594Z,33.10
2017-05-31T14:41:07.454Z,33.30
2017-05-31T14:43:36.280Z,32.60
2017-05-31T14:46:05.115Z,33.20
2017-05-31T14:48:33.956Z,33.10
2017-05-31T14:51:02.791Z,32.90
2017-05-31T14:53:31.634Z,33.80
2017-05-31T14:56:00.478Z,34.00
2017-05-31T14:58:29.315Z,34.30
2017-05-31T15:00:58.152Z,34.10
2017-05-31T15:03:27.000Z,33.80
2017-05-31T15:05:55.833Z,32.50
2017-05-31T15:08:24.661Z,32.50
2017-05-31T15:10:53.503Z,32.20
2017-05-31T15:13:22.596Z,32.70
2017-05-31T15:15:51.455Z,32.80
2017-05-31T15:18:20.305Z,33.40
2017-05-31T15:20:49.145Z,34.20
2017-05-31T15:23:18.012Z,33.90
2017-05-31T15:25:46.863Z,33.60
2017-05-31T15:28:15.697Z,34.20
2017-05-31T15:30:44.530Z,33.70
2017-05-31T15:33:13.369Z,33.00
2017-05-31T15:35:42.206Z,33.10
2017-05-31T15:38:11.050Z,32.80
2017-05-31T15:40:39.907Z,33.20
2017-05-31T15:43:08.786Z,33.70
2017-05-31T15:45:37.603Z,34.20
2017-05-31T15:48:06.479Z,34.10
2017-05-31T15:50:35.309Z,34.00
2017-05-31T15:53:04.149Z,33.20
2017-05-31T15:55:32.991Z,32.90
2017-05-31T15:58:01.827Z,33.60
2017-05-31T16:00:30.667Z,34.40
2017-05-31T16:02:59.537Z,34.40
2017-05-31T16:05:28.395Z,34.60
2017-05-31T16:07:57.219Z,35.80
2017-05-31T16:10:26.068Z,35.90
2017-05-31T16:12:54.895Z,35.20
2017-05-31T16:15:23.751Z,35.20
2017-05-31T16:17:52.583Z,35.40
2017-05-31T16:20:21.437Z,36.50
2017-05-31T16:22:50.272Z,37.60
2017-05-31T16:25:19.118Z,37.20
2017-05-31T16:27:47.964Z,36.10
2017-05-31T16:30:16.799Z,36.30
2017-05-31T16:32:45.641Z,36.20
2017-05-31T16:35:14.471Z,36.10
2017-05-31T16:37:43.339Z,36.20
2017-05-31T16:40:12.178Z,37.30
2017-05-31T16:42:41.018Z,37.00
2017-05-31T16:45:09.856Z,36.90
2017-05-31T16:47:38.691Z,36.60
2017-05-31T16:50:07.536Z,36.90
2017-05-31T16:52:36.381Z,37.50
2017-05-31T16:55:05.217Z,37.30
2017-05-31T16:57:34.056Z,37.80
2017-05-31T17:00:02.154Z,37.80
2017-05-31T17:02:31.010Z,37.40
2017-05-31T17:04:59.075Z,37.30
2017-05-31T17:07:27.912Z,38.00
2017-05-31T17:09:56.755Z,37.70
2017-05-31T17:12:25.586Z,37.90
2017-05-31T17:14:54.443Z,37.80
2017-05-31T17:17:23.281Z,37.40
2017-05-31T17:19:52.118Z,37.00
2017-05-31T17:22:20.955Z,37.80
2017-05-31T17:24:49.795Z,38.30
2017-05-31T17:27:18.645Z,38.30
2017-05-31T17:29:46.723Z,38.30
2017-05-31T17:32:15.572Z,37.20
2017-05-31T17:34:44.420Z,37.60
2017-05-31T17:37:13.262Z,37.90
2017-05-31T17:39:42.109Z,37.40
2017-05-31T17:42:10.945Z,37.50
2017-05-31T17:44:39.801Z,37.50
2017-05-31T17:47:08.623Z,37.20
2017-05-31T17:49:36.692Z,37.10
2017-05-31T17:52:05.538Z,36.30
2017-05-31T17:54:33.604Z,36.30
2017-05-31T17:57:02.672Z,35.90
2017-05-31T17:59:31.517Z,36.00
2017-05-31T18:02:00.380Z,36.50
2017-05-31T18:04:29.231Z,36.60
2017-05-31T18:06:58.091Z,36.30
2017-05-31T18:09:26.943Z,36.60
2017-05-31T18:11:55.797Z,36.70
2017-05-31T18:14:24.639Z,36.90
2017-05-31T18:16:53.471Z,37.00
2017-05-31T18:19:22.319Z,37.40
2017-05-31T18:21:51.153Z,37.50
2017-05-31T18:24:20.012Z,37.70
2017-05-31T18:26:48.844Z,37.90
2017-05-31T18:29:17.695Z,38.20
2017-05-31T18:31:46.552Z,38.40
2017-05-31T18:34:15.376Z,38.10
2017-05-31T18:36:44.216Z,38.50
2017-05-31T18:39:13.040Z,38.60
2017-05-31T18:41:41.871Z,38.40
2017-05-31T18:44:10.759Z,38.70
2017-05-31T18:46:39.608Z,39.40
2017-05-31T18:49:08.443Z,39.50
2017-05-31T18:51:37.284Z,39.70
2017-05-31T18:54:05.361Z,39.70
2017-05-31T18:56:34.205Z,40.60
2017-05-31T18:59:03.030Z,40.40
2017-05-31T19:01:31.859Z,40.70
2017-05-31T19:04:00.708Z,40.70
2017-05-31T19:06:28.780Z,40.70
2017-05-31T19:08:57.839Z,40.80
2017-05-31T19:11:26.671Z,41.00
2017-05-31T19:13:55.500Z,42.40
2017-05-31T19:16:24.347Z,43.70
2017-05-31T19:18:53.188Z,45.70
2017-05-31T19:21:22.024Z,46.00
2017-05-31T19:23:51.075Z,47.40
2017-05-31T19:26:19.911Z,48.70
2017-05-31T19:28:48.747Z,48.50
2017-05-31T19:31:17.587Z,48.20
2017-05-31T19:33:46.423Z,48.60
2017-05-31T19:36:15.276Z,49.10
2017-05-31T19:38:44.107Z,49.70
2017-05-31T19:41:12.978Z,49.90
2017-05-31T19:43:41.805Z,49.30
2017-05-31T19:46:10.640Z,49.30
2017-05-31T19:48:39.476Z,49.70
2017-05-31T19:51:08.312Z,50.10
2017-05-31T19:53:37.151Z,50.40
2017-05-31T19:56:06.013Z,50.20
2017-05-31T19:58:34.852Z,50.50
2017-05-31T20:01:03.696Z,50.40
2017-05-31T20:03:32.557Z,50.90
2017-05-31T20:06:00.629Z,50.90
2017-05-31T20:08:29.464Z,51.10
2017-05-31T20:10:58.310Z,51.20
2017-05-31T20:13:27.152Z,50.90
2017-05-31T20:15:55.990Z,50.70
2017-05-31T20:18:24.828Z,51.70
2017-05-31T20:20:52.920Z,51.70
2017-05-31T20:23:21.765Z,53.10
2017-05-31T20:25:50.691Z,53.30
2017-05-31T20:28:19.543Z,53.70
2017-05-31T20:30:48.790Z,53.60
2017-05-31T20:33:17.636Z,52.60
2017-05-31T20:35:46.472Z,52.40
2017-05-31T20:38:15.316Z,52.70
2017-05-31T20:40:44.138Z,53.30
2017-05-31T20:43:12.995Z,52.10
2017-05-31T20:45:41.829Z,52.00
2017-05-31T20:48:10.663Z,51.80
2017-05-31T20:50:39.501Z,52.00
2017-05-31T20:53:08.337Z,52.20
2017-05-31T20:55:37.291Z,52.80
2017-05-31T20:58:06.155Z,53.20
2017-05-31T21:00:34.950Z,53.90
2017-05-31T21:03:03.789Z,54.90
2017-05-31T21:05:32.647Z,55.70
2017-05-31T21:08:01.483Z,55.80
2017-05-31T21:10:30.317Z,54.80
2017-05-31T21:12:59.172Z,53.60
2017-05-31T21:15:28.256Z,53.30
2017-05-31T21:17:57.372Z,53.00
2017-05-31T21:20:26.421Z,53.10
2017-05-31T21:22:56.172Z,53.70
2017-05-31T21:25:25.322Z,53.50
2017-05-31T21:27:54.609Z,53.10
2017-05-31T21:30:23.711Z,53.00
2017-05-31T21:32:52.879Z,53.90
2017-05-31T21:35:22.125Z,54.30
2017-05-31T21:37:51.401Z,54.90
2017-05-31T21:40:21.063Z,55.70
2017-05-31T21:42:50.214Z,57.20
2017-05-31T21:45:19.829Z,58.40
2017-05-31T21:47:48.771Z,59.20
2017-05-31T21:50:17.629Z,58.60
2017-05-31T21:52:46.455Z,59.10
2017-05-31T21:55:15.313Z,58.10
2017-05-31T21:57:44.206Z,57.60
2017-05-31T22:00:12.567Z,57.50
2017-05-31T22:02:41.785Z,56.70
2017-05-31T22:05:10.999Z,56.20
2017-05-31T22:07:40.633Z,57.00
2017-05-31T22:10:09.788Z,57.00
2017-05-31T22:12:38.217Z,57.00
2017-05-31T22:15:07.482Z,56.80
2017-05-31T22:17:37.547Z,55.80
2017-05-31T22:20:06.666Z,55.90
2017-05-31T22:22:35.814Z,56.00
2017-05-31T22:25:05.043Z,55.90
2017-05-31T22:27:34.367Z,56.20
2017-05-31T22:30:03.618Z,56.80
2017-05-31T22:32:32.712Z,56.20
2017-05-31T22:35:01.885Z,55.40
2017-05-31T22:37:31.207Z,56.00
2017-05-31T22:39:59.627Z,56.00
2017-05-31T22:42:28.900Z,56.60
2017-05-31T22:44:58.125Z,56.80
2017-05-31T22:47:27.241Z,56.40
2017-05-31T22:49:56.356Z,57.50
2017-05-31T22:52:25.738Z,58.30
2017-05-31T22:54:54.745Z,57.70
2017-05-31T22:57:24.123Z,57.40
2017-05-31T22:59:52.537Z,57.40
2017-05-31T23:02:22.033Z,58.10
2017-05-31T23:04:51.180Z,57.80
2017-05-31T23:07:20.299Z,58.10
2017-05-31T23:09:49.340Z,57.90
2017-05-31T23:12:18.555Z,57.30
2017-05-31T23:14:47.017Z,57.30
2017-05-31T23:17:16.068Z,58.40
2017-05-31T23:19:45.317Z,58.80
2017-05-31T23:22:14.484Z,58.00
2017-05-31T23:24:42.624Z,58.00
2017-05-31T23:27:11.463Z,58.60
2017-05-31T23:29:40.288Z,58.00
2017-05-31T23:32:09.138Z,58.70
2017-05-31T23:34:37.989Z,58.20
2017-05-31T23:37:06.830Z,59.00
2017-05-31T23:39:35.656Z,58.50
2017-05-31T23:42:04.501Z,58.80
2017-05-31T23:44:33.323Z,58.60
2017-05-31T23:47:02.177Z,58.30
2017-05-31T23:49:31.009Z,58.00
2017-05-31T23:51:59.073Z,58.00
2017-05-31T23:54:27.915Z,58.90
2017-05-31T23:56:56.775Z,59.10
2017-05-31T23:59:25.625Z,59.00
